sensor_id;sensor_type;location;lat;lon;timestamp;P1;durP1;ratioP1;P2;durP2;ratioP2
13443;SDS011;6794;59.218;18.218;2023-04-24T00:00:47;6.07;;;3.93;;
13443;SDS011;6794;59.218;18.218;2023-04-24T00:03:13;5.27;;;3.90;;
13443;SDS011;6794;59.218;18.218;2023-04-24T00:05:39;7.50;;;4.87;;
13443;SDS011;6794;59.218;18.218;2023-04-24T00:08:06;8.07;;;5.40;;
13443;SDS011;6794;59.218;18.218;2023-04-24T00:10:32;6.47;;;5.17;;
13443;SDS011;6794;59.218;18.218;2023-04-24T00:12:58;6.50;;;4.93;;
13443;SDS011;6794;59.218;18.218;2023-04-24T00:15:24;6.83;;;4.80;;
13443;SDS011;6794;59.218;18.218;2023-04-24T00:17:50;7.83;;;5.27;;
13443;SDS011;6794;59.218;18.218;2023-04-24T00:20:18;6.90;;;5.23;;
13443;SDS011;6794;59.218;18.218;2023-04-24T00:22:44;7.83;;;4.70;;
13443;SDS011;6794;59.218;18.218;2023-04-24T00:25:10;6.70;;;4.60;;
13443;SDS011;6794;59.218;18.218;2023-04-24T00:27:36;7.33;;;5.40;;
13443;SDS011;6794;59.218;18.218;2023-04-24T00:30:03;6.20;;;4.83;;
13443;SDS011;6794;59.218;18.218;2023-04-24T00:32:30;5.97;;;4.83;;
13443;SDS011;6794;59.218;18.218;2023-04-24T00:34:56;7.50;;;5.00;;
13443;SDS011;6794;59.218;18.218;2023-04-24T00:37:22;9.83;;;5.33;;
13443;SDS011;6794;59.218;18.218;2023-04-24T00:39:48;6.90;;;5.10;;
13443;SDS011;6794;59.218;18.218;2023-04-24T00:42:14;9.43;;;5.20;;
13443;SDS011;6794;59.218;18.218;2023-04-24T00:44:40;7.87;;;4.77;;
13443;SDS011;6794;59.218;18.218;2023-04-24T00:47:07;8.73;;;6.60;;
13443;SDS011;6794;59.218;18.218;2023-04-24T00:49:33;7.77;;;6.00;;
13443;SDS011;6794;59.218;18.218;2023-04-24T00:51:59;7.17;;;5.50;;
13443;SDS011;6794;59.218;18.218;2023-04-24T00:54:25;7.70;;;5.17;;
13443;SDS011;6794;59.218;18.218;2023-04-24T00:56:51;6.73;;;5.03;;
13443;SDS011;6794;59.218;18.218;2023-04-24T00:59:17;10.17;;;5.90;;
13443;SDS011;6794;59.218;18.218;2023-04-24T01:01:43;7.17;;;5.97;;
13443;SDS011;6794;59.218;18.218;2023-04-24T01:04:11;8.30;;;5.53;;
13443;SDS011;6794;59.218;18.218;2023-04-24T01:06:40;7.87;;;5.80;;
13443;SDS011;6794;59.218;18.218;2023-04-24T01:09:07;9.83;;;6.10;;
13443;SDS011;6794;59.218;18.218;2023-04-24T01:11:34;8.07;;;5.97;;
13443;SDS011;6794;59.218;18.218;2023-04-24T01:14:00;9.57;;;7.00;;
13443;SDS011;6794;59.218;18.218;2023-04-24T01:16:26;10.23;;;7.63;;
13443;SDS011;6794;59.218;18.218;2023-04-24T01:18:52;9.53;;;6.77;;
13443;SDS011;6794;59.218;18.218;2023-04-24T01:21:18;11.13;;;7.20;;
13443;SDS011;6794;59.218;18.218;2023-04-24T01:23:46;12.53;;;8.70;;
13443;SDS011;6794;59.218;18.218;2023-04-24T01:26:13;11.73;;;7.77;;
13443;SDS011;6794;59.218;18.218;2023-04-24T01:28:39;11.10;;;7.23;;
13443;SDS011;6794;59.218;18.218;2023-04-24T01:31:05;9.87;;;6.93;;
13443;SDS011;6794;59.218;18.218;2023-04-24T01:33:32;13.23;;;6.90;;
13443;SDS011;6794;59.218;18.218;2023-04-24T01:35:58;13.53;;;8.10;;
13443;SDS011;6794;59.218;18.218;2023-04-24T01:38:24;11.37;;;7.00;;
13443;SDS011;6794;59.218;18.218;2023-04-24T01:40:50;14.63;;;7.20;;
13443;SDS011;6794;59.218;18.218;2023-04-24T01:43:17;13.43;;;7.03;;
13443;SDS011;6794;59.218;18.218;2023-04-24T01:45:43;12.10;;;7.40;;
13443;SDS011;6794;59.218;18.218;2023-04-24T01:48:10;12.00;;;6.57;;
13443;SDS011;6794;59.218;18.218;2023-04-24T01:50:36;11.63;;;6.40;;
13443;SDS011;6794;59.218;18.218;2023-04-24T01:53:02;10.20;;;6.23;;
13443;SDS011;6794;59.218;18.218;2023-04-24T01:55:29;12.03;;;6.00;;
13443;SDS011;6794;59.218;18.218;2023-04-24T01:57:55;11.40;;;6.33;;
13443;SDS011;6794;59.218;18.218;2023-04-24T02:00:22;12.33;;;6.67;;
13443;SDS011;6794;59.218;18.218;2023-04-24T02:02:49;14.00;;;7.22;;
13443;SDS011;6794;59.218;18.218;2023-04-24T02:05:15;12.27;;;6.47;;
13443;SDS011;6794;59.218;18.218;2023-04-24T02:07:41;13.03;;;7.17;;
13443;SDS011;6794;59.218;18.218;2023-04-24T02:10:08;12.13;;;6.83;;
13443;SDS011;6794;59.218;18.218;2023-04-24T02:12:34;10.07;;;6.37;;
13443;SDS011;6794;59.218;18.218;2023-04-24T02:15:00;11.67;;;6.63;;
13443;SDS011;6794;59.218;18.218;2023-04-24T02:17:26;13.80;;;6.20;;
13443;SDS011;6794;59.218;18.218;2023-04-24T02:19:52;12.20;;;7.00;;
13443;SDS011;6794;59.218;18.218;2023-04-24T02:22:18;10.67;;;6.10;;
13443;SDS011;6794;59.218;18.218;2023-04-24T02:24:44;10.67;;;6.30;;
13443;SDS011;6794;59.218;18.218;2023-04-24T02:27:10;11.63;;;5.97;;
13443;SDS011;6794;59.218;18.218;2023-04-24T02:29:36;10.20;;;6.10;;
13443;SDS011;6794;59.218;18.218;2023-04-24T02:32:02;13.30;;;6.07;;
13443;SDS011;6794;59.218;18.218;2023-04-24T02:34:28;14.50;;;6.17;;
13443;SDS011;6794;59.218;18.218;2023-04-24T02:36:55;11.47;;;5.47;;
13443;SDS011;6794;59.218;18.218;2023-04-24T02:39:21;11.20;;;5.47;;
13443;SDS011;6794;59.218;18.218;2023-04-24T02:41:47;13.00;;;6.78;;
13443;SDS011;6794;59.218;18.218;2023-04-24T02:44:13;13.20;;;5.83;;
13443;SDS011;6794;59.218;18.218;2023-04-24T02:46:39;14.50;;;6.30;;
13443;SDS011;6794;59.218;18.218;2023-04-24T02:49:06;14.60;;;6.97;;
13443;SDS011;6794;59.218;18.218;2023-04-24T02:51:32;15.97;;;6.07;;
13443;SDS011;6794;59.218;18.218;2023-04-24T02:53:58;11.90;;;6.00;;
13443;SDS011;6794;59.218;18.218;2023-04-24T02:56:24;11.37;;;5.97;;
13443;SDS011;6794;59.218;18.218;2023-04-24T02:58:50;14.00;;;6.47;;
13443;SDS011;6794;59.218;18.218;2023-04-24T03:01:16;13.10;;;6.00;;
13443;SDS011;6794;59.218;18.218;2023-04-24T03:03:42;13.57;;;5.83;;
13443;SDS011;6794;59.218;18.218;2023-04-24T03:06:08;13.17;;;5.77;;
13443;SDS011;6794;59.218;18.218;2023-04-24T03:08:35;13.83;;;5.00;;
13443;SDS011;6794;59.218;18.218;2023-04-24T03:11:01;13.70;;;6.10;;
13443;SDS011;6794;59.218;18.218;2023-04-24T03:13:27;16.20;;;6.30;;
13443;SDS011;6794;59.218;18.218;2023-04-24T03:15:53;13.87;;;6.23;;
13443;SDS011;6794;59.218;18.218;2023-04-24T03:18:19;11.20;;;6.30;;
13443;SDS011;6794;59.218;18.218;2023-04-24T03:20:46;19.92;;;7.38;;
13443;SDS011;6794;59.218;18.218;2023-04-24T03:23:12;12.27;;;5.97;;
13443;SDS011;6794;59.218;18.218;2023-04-24T03:25:38;14.93;;;6.97;;
13443;SDS011;6794;59.218;18.218;2023-04-24T03:28:05;15.47;;;6.70;;
13443;SDS011;6794;59.218;18.218;2023-04-24T03:30:31;15.03;;;6.17;;
13443;SDS011;6794;59.218;18.218;2023-04-24T03:32:57;16.17;;;6.70;;
13443;SDS011;6794;59.218;18.218;2023-04-24T03:35:23;15.13;;;6.90;;
13443;SDS011;6794;59.218;18.218;2023-04-24T03:37:49;18.23;;;7.47;;
13443;SDS011;6794;59.218;18.218;2023-04-24T03:40:15;17.20;;;6.70;;
13443;SDS011;6794;59.218;18.218;2023-04-24T03:42:41;16.00;;;7.37;;
13443;SDS011;6794;59.218;18.218;2023-04-24T03:45:08;16.23;;;6.63;;
13443;SDS011;6794;59.218;18.218;2023-04-24T03:47:34;17.13;;;7.00;;
13443;SDS011;6794;59.218;18.218;2023-04-24T03:50:01;11.77;;;6.07;;
13443;SDS011;6794;59.218;18.218;2023-04-24T03:52:27;9.63;;;5.07;;
13443;SDS011;6794;59.218;18.218;2023-04-24T03:54:53;11.73;;;5.30;;
13443;SDS011;6794;59.218;18.218;2023-04-24T03:57:20;11.23;;;4.53;;
13443;SDS011;6794;59.218;18.218;2023-04-24T03:59:46;11.90;;;5.25;;
13443;SDS011;6794;59.218;18.218;2023-04-24T04:02:12;10.57;;;4.20;;
13443;SDS011;6794;59.218;18.218;2023-04-24T04:04:38;8.30;;;4.10;;
13443;SDS011;6794;59.218;18.218;2023-04-24T04:07:04;11.80;;;4.77;;
13443;SDS011;6794;59.218;18.218;2023-04-24T04:09:31;11.27;;;3.73;;
13443;SDS011;6794;59.218;18.218;2023-04-24T04:11:58;7.70;;;4.40;;
13443;SDS011;6794;59.218;18.218;2023-04-24T04:14:24;11.73;;;4.53;;
13443;SDS011;6794;59.218;18.218;2023-04-24T04:16:50;12.30;;;4.87;;
13443;SDS011;6794;59.218;18.218;2023-04-24T04:19:16;10.23;;;4.33;;
13443;SDS011;6794;59.218;18.218;2023-04-24T04:21:42;12.47;;;5.03;;
13443;SDS011;6794;59.218;18.218;2023-04-24T04:24:08;14.70;;;4.90;;
13443;SDS011;6794;59.218;18.218;2023-04-24T04:26:34;11.67;;;4.87;;
13443;SDS011;6794;59.218;18.218;2023-04-24T04:29:02;12.50;;;4.57;;
13443;SDS011;6794;59.218;18.218;2023-04-24T04:31:28;16.63;;;5.27;;
13443;SDS011;6794;59.218;18.218;2023-04-24T04:33:55;13.70;;;4.60;;
13443;SDS011;6794;59.218;18.218;2023-04-24T04:36:21;11.70;;;4.57;;
13443;SDS011;6794;59.218;18.218;2023-04-24T04:38:48;12.90;;;4.90;;
13443;SDS011;6794;59.218;18.218;2023-04-24T04:41:14;16.53;;;5.70;;
13443;SDS011;6794;59.218;18.218;2023-04-24T04:43:41;14.53;;;5.33;;
13443;SDS011;6794;59.218;18.218;2023-04-24T04:46:07;15.03;;;5.60;;
13443;SDS011;6794;59.218;18.218;2023-04-24T04:48:35;17.07;;;5.27;;
13443;SDS011;6794;59.218;18.218;2023-04-24T04:51:02;11.57;;;5.17;;
13443;SDS011;6794;59.218;18.218;2023-04-24T04:53:28;16.07;;;5.90;;
13443;SDS011;6794;59.218;18.218;2023-04-24T04:55:54;16.03;;;5.63;;
13443;SDS011;6794;59.218;18.218;2023-04-24T04:58:20;13.00;;;5.33;;
13443;SDS011;6794;59.218;18.218;2023-04-24T05:00:46;16.33;;;5.53;;
13443;SDS011;6794;59.218;18.218;2023-04-24T05:03:12;14.43;;;5.43;;
13443;SDS011;6794;59.218;18.218;2023-04-24T05:05:38;13.57;;;5.00;;
13443;SDS011;6794;59.218;18.218;2023-04-24T05:08:06;14.10;;;5.60;;
13443;SDS011;6794;59.218;18.218;2023-04-24T05:10:32;14.33;;;5.03;;
13443;SDS011;6794;59.218;18.218;2023-04-24T05:12:58;14.60;;;5.57;;
13443;SDS011;6794;59.218;18.218;2023-04-24T05:15:24;14.73;;;6.40;;
13443;SDS011;6794;59.218;18.218;2023-04-24T05:17:50;15.30;;;6.07;;
13443;SDS011;6794;59.218;18.218;2023-04-24T05:20:16;17.00;;;7.20;;
13443;SDS011;6794;59.218;18.218;2023-04-24T05:22:42;11.87;;;5.20;;
13443;SDS011;6794;59.218;18.218;2023-04-24T05:25:08;11.93;;;5.43;;
13443;SDS011;6794;59.218;18.218;2023-04-24T05:27:34;14.10;;;5.17;;
13443;SDS011;6794;59.218;18.218;2023-04-24T05:30:00;14.27;;;5.87;;
13443;SDS011;6794;59.218;18.218;2023-04-24T05:32:26;14.73;;;5.27;;
13443;SDS011;6794;59.218;18.218;2023-04-24T05:34:52;11.20;;;4.37;;
13443;SDS011;6794;59.218;18.218;2023-04-24T05:37:18;10.10;;;4.70;;
13443;SDS011;6794;59.218;18.218;2023-04-24T05:39:45;11.07;;;4.87;;
13443;SDS011;6794;59.218;18.218;2023-04-24T05:42:11;13.67;;;5.70;;
13443;SDS011;6794;59.218;18.218;2023-04-24T05:44:37;12.73;;;5.73;;
13443;SDS011;6794;59.218;18.218;2023-04-24T05:47:03;10.43;;;4.90;;
13443;SDS011;6794;59.218;18.218;2023-04-24T05:49:29;16.00;;;6.20;;
13443;SDS011;6794;59.218;18.218;2023-04-24T05:51:56;16.10;;;6.70;;
13443;SDS011;6794;59.218;18.218;2023-04-24T05:54:22;14.70;;;7.00;;
13443;SDS011;6794;59.218;18.218;2023-04-24T05:56:49;13.80;;;6.80;;
13443;SDS011;6794;59.218;18.218;2023-04-24T05:59:15;16.85;;;8.30;;
13443;SDS011;6794;59.218;18.218;2023-04-24T06:01:41;14.33;;;6.87;;
13443;SDS011;6794;59.218;18.218;2023-04-24T06:04:07;13.67;;;6.40;;
13443;SDS011;6794;59.218;18.218;2023-04-24T06:06:34;15.97;;;6.60;;
13443;SDS011;6794;59.218;18.218;2023-04-24T06:09:01;12.43;;;6.03;;
13443;SDS011;6794;59.218;18.218;2023-04-24T06:11:27;11.07;;;5.40;;
13443;SDS011;6794;59.218;18.218;2023-04-24T06:13:54;10.07;;;4.93;;
13443;SDS011;6794;59.218;18.218;2023-04-24T06:16:20;15.63;;;5.80;;
13443;SDS011;6794;59.218;18.218;2023-04-24T06:18:46;9.10;;;4.57;;
13443;SDS011;6794;59.218;18.218;2023-04-24T06:21:12;12.37;;;4.73;;
13443;SDS011;6794;59.218;18.218;2023-04-24T06:23:38;8.60;;;3.87;;
13443;SDS011;6794;59.218;18.218;2023-04-24T06:26:04;10.47;;;4.70;;
13443;SDS011;6794;59.218;18.218;2023-04-24T06:28:30;12.33;;;4.80;;
13443;SDS011;6794;59.218;18.218;2023-04-24T06:30:56;12.37;;;5.97;;
13443;SDS011;6794;59.218;18.218;2023-04-24T06:33:22;11.63;;;5.13;;
13443;SDS011;6794;59.218;18.218;2023-04-24T06:35:48;9.30;;;5.00;;
13443;SDS011;6794;59.218;18.218;2023-04-24T06:38:15;7.75;;;4.63;;
13443;SDS011;6794;59.218;18.218;2023-04-24T06:40:41;8.13;;;4.77;;
13443;SDS011;6794;59.218;18.218;2023-04-24T06:43:07;8.57;;;4.30;;
13443;SDS011;6794;59.218;18.218;2023-04-24T06:45:33;8.23;;;3.83;;
13443;SDS011;6794;59.218;18.218;2023-04-24T06:47:59;7.87;;;3.83;;
13443;SDS011;6794;59.218;18.218;2023-04-24T06:50:25;8.10;;;3.80;;
13443;SDS011;6794;59.218;18.218;2023-04-24T06:52:51;8.63;;;3.70;;
13443;SDS011;6794;59.218;18.218;2023-04-24T06:55:17;7.37;;;3.47;;
13443;SDS011;6794;59.218;18.218;2023-04-24T06:57:43;6.80;;;3.47;;
13443;SDS011;6794;59.218;18.218;2023-04-24T07:00:09;7.43;;;3.63;;
13443;SDS011;6794;59.218;18.218;2023-04-24T07:02:36;6.07;;;3.43;;
13443;SDS011;6794;59.218;18.218;2023-04-24T07:05:02;6.50;;;3.00;;
13443;SDS011;6794;59.218;18.218;2023-04-24T07:07:28;5.10;;;2.40;;
13443;SDS011;6794;59.218;18.218;2023-04-24T07:09:54;4.37;;;2.40;;
13443;SDS011;6794;59.218;18.218;2023-04-24T07:12:21;4.57;;;2.60;;
13443;SDS011;6794;59.218;18.218;2023-04-24T07:14:47;3.67;;;2.10;;
13443;SDS011;6794;59.218;18.218;2023-04-24T07:17:13;3.83;;;2.10;;
13443;SDS011;6794;59.218;18.218;2023-04-24T07:19:39;5.38;;;2.80;;
13443;SDS011;6794;59.218;18.218;2023-04-24T07:22:05;5.23;;;2.50;;
13443;SDS011;6794;59.218;18.218;2023-04-24T07:24:32;3.57;;;1.93;;
13443;SDS011;6794;59.218;18.218;2023-04-24T07:26:58;3.93;;;2.10;;
13443;SDS011;6794;59.218;18.218;2023-04-24T07:29:25;3.03;;;1.93;;
13443;SDS011;6794;59.218;18.218;2023-04-24T07:31:51;3.03;;;2.13;;
13443;SDS011;6794;59.218;18.218;2023-04-24T07:34:19;6.00;;;2.33;;
13443;SDS011;6794;59.218;18.218;2023-04-24T07:36:45;3.03;;;1.93;;
13443;SDS011;6794;59.218;18.218;2023-04-24T07:39:11;3.13;;;2.10;;
13443;SDS011;6794;59.218;18.218;2023-04-24T07:41:37;6.13;;;2.37;;
13443;SDS011;6794;59.218;18.218;2023-04-24T07:44:03;4.80;;;2.40;;
13443;SDS011;6794;59.218;18.218;2023-04-24T07:46:30;3.07;;;2.33;;
13443;SDS011;6794;59.218;18.218;2023-04-24T07:48:56;2.83;;;2.00;;
13443;SDS011;6794;59.218;18.218;2023-04-24T07:51:22;3.40;;;2.10;;
13443;SDS011;6794;59.218;18.218;2023-04-24T07:53:48;4.07;;;2.00;;
13443;SDS011;6794;59.218;18.218;2023-04-24T07:56:14;2.80;;;1.65;;
13443;SDS011;6794;59.218;18.218;2023-04-24T07:58:42;3.00;;;1.90;;
13443;SDS011;6794;59.218;18.218;2023-04-24T08:01:08;3.03;;;1.70;;
13443;SDS011;6794;59.218;18.218;2023-04-24T08:03:34;3.90;;;1.70;;
13443;SDS011;6794;59.218;18.218;2023-04-24T08:06:00;2.50;;;1.50;;
13443;SDS011;6794;59.218;18.218;2023-04-24T08:08:26;2.93;;;1.50;;
13443;SDS011;6794;59.218;18.218;2023-04-24T08:10:52;2.13;;;1.30;;
13443;SDS011;6794;59.218;18.218;2023-04-24T08:13:18;1.80;;;1.60;;
13443;SDS011;6794;59.218;18.218;2023-04-24T08:15:44;2.23;;;1.50;;
13443;SDS011;6794;59.218;18.218;2023-04-24T08:18:10;1.50;;;1.00;;
13443;SDS011;6794;59.218;18.218;2023-04-24T08:20:38;1.67;;;1.33;;
13443;SDS011;6794;59.218;18.218;2023-04-24T08:23:04;1.43;;;1.20;;
13443;SDS011;6794;59.218;18.218;2023-04-24T08:25:30;2.23;;;1.40;;
13443;SDS011;6794;59.218;18.218;2023-04-24T08:27:56;2.07;;;1.50;;
13443;SDS011;6794;59.218;18.218;2023-04-24T08:30:22;2.17;;;1.60;;
13443;SDS011;6794;59.218;18.218;2023-04-24T08:32:48;1.60;;;1.00;;
13443;SDS011;6794;59.218;18.218;2023-04-24T08:35:14;1.17;;;1.00;;
13443;SDS011;6794;59.218;18.218;2023-04-24T08:37:40;1.47;;;1.30;;
13443;SDS011;6794;59.218;18.218;2023-04-24T08:40:11;2.50;;;1.30;;
13443;SDS011;6794;59.218;18.218;2023-04-24T08:42:38;1.40;;;0.97;;
13443;SDS011;6794;59.218;18.218;2023-04-24T08:45:05;1.50;;;1.40;;
13443;SDS011;6794;59.218;18.218;2023-04-24T08:47:31;1.30;;;1.20;;
13443;SDS011;6794;59.218;18.218;2023-04-24T08:49:57;1.20;;;1.00;;
13443;SDS011;6794;59.218;18.218;2023-04-24T08:52:25;1.20;;;1.10;;
13443;SDS011;6794;59.218;18.218;2023-04-24T08:54:53;1.67;;;1.40;;
13443;SDS011;6794;59.218;18.218;2023-04-24T08:57:19;1.37;;;1.20;;
13443;SDS011;6794;59.218;18.218;2023-04-24T08:59:45;1.73;;;0.93;;
13443;SDS011;6794;59.218;18.218;2023-04-24T09:02:12;2.00;;;1.10;;
13443;SDS011;6794;59.218;18.218;2023-04-24T09:04:40;2.00;;;1.40;;
13443;SDS011;6794;59.218;18.218;2023-04-24T09:07:06;1.40;;;1.10;;
13443;SDS011;6794;59.218;18.218;2023-04-24T09:09:33;1.50;;;1.10;;
13443;SDS011;6794;59.218;18.218;2023-04-24T09:12:00;1.47;;;1.30;;
13443;SDS011;6794;59.218;18.218;2023-04-24T09:14:27;2.67;;;2.10;;
13443;SDS011;6794;59.218;18.218;2023-04-24T09:16:53;1.90;;;1.40;;
13443;SDS011;6794;59.218;18.218;2023-04-24T09:19:19;1.47;;;1.33;;
13443;SDS011;6794;59.218;18.218;2023-04-24T09:21:46;3.03;;;1.50;;
13443;SDS011;6794;59.218;18.218;2023-04-24T09:24:16;1.73;;;1.30;;
13443;SDS011;6794;59.218;18.218;2023-04-24T09:26:43;1.20;;;1.10;;
13443;SDS011;6794;59.218;18.218;2023-04-24T09:29:13;1.40;;;0.97;;
13443;SDS011;6794;59.218;18.218;2023-04-24T09:31:40;1.30;;;1.20;;
13443;SDS011;6794;59.218;18.218;2023-04-24T09:34:06;1.20;;;1.10;;
13443;SDS011;6794;59.218;18.218;2023-04-24T09:36:33;1.10;;;1.00;;
13443;SDS011;6794;59.218;18.218;2023-04-24T09:39:02;1.30;;;1.20;;
13443;SDS011;6794;59.218;18.218;2023-04-24T09:41:29;1.40;;;1.30;;
13443;SDS011;6794;59.218;18.218;2023-04-24T09:43:55;1.40;;;1.30;;
13443;SDS011;6794;59.218;18.218;2023-04-24T09:46:28;2.33;;;1.37;;
13443;SDS011;6794;59.218;18.218;2023-04-24T09:48:55;2.20;;;1.47;;
13443;SDS011;6794;59.218;18.218;2023-04-24T09:51:33;1.87;;;1.50;;
13443;SDS011;6794;59.218;18.218;2023-04-24T09:54:00;2.70;;;1.40;;
13443;SDS011;6794;59.218;18.218;2023-04-24T09:56:26;1.70;;;1.60;;
13443;SDS011;6794;59.218;18.218;2023-04-24T09:58:53;1.80;;;1.20;;
13443;SDS011;6794;59.218;18.218;2023-04-24T10:01:32;1.30;;;1.20;;
13443;SDS011;6794;59.218;18.218;2023-04-24T10:03:58;1.33;;;1.10;;
13443;SDS011;6794;59.218;18.218;2023-04-24T10:06:34;1.80;;;1.20;;
13443;SDS011;6794;59.218;18.218;2023-04-24T10:09:00;1.60;;;1.50;;
13443;SDS011;6794;59.218;18.218;2023-04-24T10:11:27;1.87;;;1.60;;
13443;SDS011;6794;59.218;18.218;2023-04-24T10:13:53;3.80;;;1.57;;
13443;SDS011;6794;59.218;18.218;2023-04-24T10:16:23;1.60;;;1.50;;
13443;SDS011;6794;59.218;18.218;2023-04-24T10:18:49;2.30;;;1.40;;
13443;SDS011;6794;59.218;18.218;2023-04-24T10:21:19;2.43;;;1.63;;
13443;SDS011;6794;59.218;18.218;2023-04-24T10:23:45;1.57;;;1.43;;
13443;SDS011;6794;59.218;18.218;2023-04-24T10:26:14;1.70;;;1.60;;
13443;SDS011;6794;59.218;18.218;2023-04-24T10:28:46;2.00;;;1.53;;
13443;SDS011;6794;59.218;18.218;2023-04-24T10:31:13;2.23;;;1.90;;
13443;SDS011;6794;59.218;18.218;2023-04-24T10:33:40;2.20;;;1.70;;
13443;SDS011;6794;59.218;18.218;2023-04-24T10:36:07;1.97;;;1.70;;
13443;SDS011;6794;59.218;18.218;2023-04-24T10:38:33;2.43;;;1.90;;
13443;SDS011;6794;59.218;18.218;2023-04-24T10:41:09;2.13;;;1.80;;
13443;SDS011;6794;59.218;18.218;2023-04-24T10:43:41;2.33;;;2.13;;
13443;SDS011;6794;59.218;18.218;2023-04-24T10:46:07;2.63;;;2.42;;
13443;SDS011;6794;59.218;18.218;2023-04-24T10:48:35;2.07;;;1.87;;
13443;SDS011;6794;59.218;18.218;2023-04-24T10:51:01;2.00;;;1.80;;
13443;SDS011;6794;59.218;18.218;2023-04-24T10:53:28;2.03;;;1.87;;
13443;SDS011;6794;59.218;18.218;2023-04-24T10:58:24;2.20;;;2.00;;
13443;SDS011;6794;59.218;18.218;2023-04-24T11:00:57;6.10;;;2.40;;
13443;SDS011;6794;59.218;18.218;2023-04-24T11:03:25;2.80;;;2.37;;
13443;SDS011;6794;59.218;18.218;2023-04-24T11:05:52;2.30;;;1.87;;
13443;SDS011;6794;59.218;18.218;2023-04-24T11:08:23;3.77;;;2.53;;
13443;SDS011;6794;59.218;18.218;2023-04-24T11:10:56;3.20;;;2.30;;
13443;SDS011;6794;59.218;18.218;2023-04-24T11:13:23;2.90;;;2.23;;
13443;SDS011;6794;59.218;18.218;2023-04-24T11:18:38;4.67;;;2.40;;
13443;SDS011;6794;59.218;18.218;2023-04-24T11:21:16;2.73;;;2.53;;
13443;SDS011;6794;59.218;18.218;2023-04-24T11:23:42;3.83;;;3.33;;
13443;SDS011;6794;59.218;18.218;2023-04-24T11:28:43;3.43;;;2.70;;
13443;SDS011;6794;59.218;18.218;2023-04-24T11:33:54;3.03;;;2.43;;
13443;SDS011;6794;59.218;18.218;2023-04-24T11:36:20;3.73;;;2.67;;
13443;SDS011;6794;59.218;18.218;2023-04-24T11:38:46;3.17;;;2.60;;
13443;SDS011;6794;59.218;18.218;2023-04-24T11:41:13;4.33;;;2.60;;
13443;SDS011;6794;59.218;18.218;2023-04-24T11:43:39;4.70;;;2.90;;
13443;SDS011;6794;59.218;18.218;2023-04-24T11:46:05;4.87;;;2.87;;
13443;SDS011;6794;59.218;18.218;2023-04-24T11:48:34;5.07;;;2.20;;
13443;SDS011;6794;59.218;18.218;2023-04-24T11:51:01;3.43;;;2.53;;
13443;SDS011;6794;59.218;18.218;2023-04-24T11:53:27;3.53;;;3.03;;
13443;SDS011;6794;59.218;18.218;2023-04-24T11:55:53;2.83;;;2.13;;
13443;SDS011;6794;59.218;18.218;2023-04-24T11:58:22;3.57;;;2.57;;
13443;SDS011;6794;59.218;18.218;2023-04-24T12:00:55;3.30;;;2.43;;
13443;SDS011;6794;59.218;18.218;2023-04-24T12:03:21;3.53;;;2.80;;
13443;SDS011;6794;59.218;18.218;2023-04-24T12:05:47;4.17;;;2.53;;
13443;SDS011;6794;59.218;18.218;2023-04-24T12:08:26;3.53;;;2.60;;
13443;SDS011;6794;59.218;18.218;2023-04-24T12:10:53;3.70;;;2.27;;
13443;SDS011;6794;59.218;18.218;2023-04-24T12:13:19;4.07;;;3.27;;
13443;SDS011;6794;59.218;18.218;2023-04-24T12:15:45;3.77;;;2.70;;
13443;SDS011;6794;59.218;18.218;2023-04-24T12:18:11;2.80;;;2.50;;
13443;SDS011;6794;59.218;18.218;2023-04-24T12:20:40;3.43;;;2.37;;
13443;SDS011;6794;59.218;18.218;2023-04-24T12:23:06;4.37;;;3.00;;
13443;SDS011;6794;59.218;18.218;2023-04-24T12:25:32;4.83;;;3.00;;
13443;SDS011;6794;59.218;18.218;2023-04-24T12:30:32;3.73;;;2.97;;
13443;SDS011;6794;59.218;18.218;2023-04-24T12:32:58;4.83;;;2.80;;
13443;SDS011;6794;59.218;18.218;2023-04-24T12:35:25;4.23;;;2.90;;
13443;SDS011;6794;59.218;18.218;2023-04-24T12:37:52;4.33;;;3.53;;
13443;SDS011;6794;59.218;18.218;2023-04-24T12:40:19;4.13;;;3.07;;
13443;SDS011;6794;59.218;18.218;2023-04-24T12:42:46;3.97;;;3.50;;
13443;SDS011;6794;59.218;18.218;2023-04-24T12:45:13;4.40;;;3.70;;
13443;SDS011;6794;59.218;18.218;2023-04-24T12:47:39;4.50;;;3.30;;
13443;SDS011;6794;59.218;18.218;2023-04-24T12:50:06;3.70;;;2.83;;
13443;SDS011;6794;59.218;18.218;2023-04-24T12:52:33;4.30;;;3.10;;
13443;SDS011;6794;59.218;18.218;2023-04-24T12:54:59;4.70;;;3.60;;
13443;SDS011;6794;59.218;18.218;2023-04-24T12:57:26;3.47;;;3.07;;
13443;SDS011;6794;59.218;18.218;2023-04-24T12:59:55;4.30;;;3.70;;
13443;SDS011;6794;59.218;18.218;2023-04-24T13:02:22;4.30;;;3.60;;
13443;SDS011;6794;59.218;18.218;2023-04-24T13:04:48;5.17;;;3.27;;
13443;SDS011;6794;59.218;18.218;2023-04-24T13:07:15;4.87;;;3.13;;
13443;SDS011;6794;59.218;18.218;2023-04-24T13:09:41;5.23;;;3.50;;
13443;SDS011;6794;59.218;18.218;2023-04-24T13:12:08;5.07;;;3.07;;
13443;SDS011;6794;59.218;18.218;2023-04-24T13:14:34;4.33;;;3.23;;
13443;SDS011;6794;59.218;18.218;2023-04-24T13:17:00;3.33;;;2.87;;
13443;SDS011;6794;59.218;18.218;2023-04-24T13:19:27;5.43;;;3.27;;
13443;SDS011;6794;59.218;18.218;2023-04-24T13:21:56;5.32;;;3.47;;
13443;SDS011;6794;59.218;18.218;2023-04-24T13:24:24;2.90;;;2.60;;
13443;SDS011;6794;59.218;18.218;2023-04-24T13:26:50;2.77;;;2.47;;
13443;SDS011;6794;59.218;18.218;2023-04-24T13:29:16;4.60;;;2.50;;
13443;SDS011;6794;59.218;18.218;2023-04-24T13:31:43;3.93;;;3.00;;
13443;SDS011;6794;59.218;18.218;2023-04-24T13:34:09;3.30;;;2.30;;
13443;SDS011;6794;59.218;18.218;2023-04-24T13:36:35;6.10;;;2.80;;
13443;SDS011;6794;59.218;18.218;2023-04-24T13:39:02;5.73;;;2.57;;
13443;SDS011;6794;59.218;18.218;2023-04-24T13:41:29;2.93;;;2.40;;
13443;SDS011;6794;59.218;18.218;2023-04-24T13:43:55;3.10;;;2.67;;
13443;SDS011;6794;59.218;18.218;2023-04-24T13:46:21;3.90;;;2.43;;
13443;SDS011;6794;59.218;18.218;2023-04-24T13:48:47;3.70;;;2.23;;
13443;SDS011;6794;59.218;18.218;2023-04-24T13:51:13;4.17;;;2.70;;
13443;SDS011;6794;59.218;18.218;2023-04-24T13:53:39;4.37;;;3.00;;
13443;SDS011;6794;59.218;18.218;2023-04-24T13:56:05;3.30;;;2.07;;
13443;SDS011;6794;59.218;18.218;2023-04-24T13:58:31;2.87;;;2.37;;
13443;SDS011;6794;59.218;18.218;2023-04-24T14:00:57;3.40;;;2.70;;
13443;SDS011;6794;59.218;18.218;2023-04-24T14:03:23;3.20;;;2.70;;
13443;SDS011;6794;59.218;18.218;2023-04-24T14:05:50;3.27;;;2.40;;
13443;SDS011;6794;59.218;18.218;2023-04-24T14:08:16;4.10;;;2.80;;
13443;SDS011;6794;59.218;18.218;2023-04-24T14:10:42;3.43;;;2.30;;
13443;SDS011;6794;59.218;18.218;2023-04-24T14:13:08;4.67;;;2.53;;
13443;SDS011;6794;59.218;18.218;2023-04-24T14:15:35;2.50;;;2.27;;
13443;SDS011;6794;59.218;18.218;2023-04-24T14:18:01;5.30;;;2.40;;
13443;SDS011;6794;59.218;18.218;2023-04-24T14:20:28;4.93;;;2.13;;
13443;SDS011;6794;59.218;18.218;2023-04-24T14:22:54;3.00;;;2.57;;
13443;SDS011;6794;59.218;18.218;2023-04-24T14:25:20;3.93;;;2.10;;
13443;SDS011;6794;59.218;18.218;2023-04-24T14:27:47;2.93;;;2.13;;
13443;SDS011;6794;59.218;18.218;2023-04-24T14:30:13;2.47;;;2.13;;
13443;SDS011;6794;59.218;18.218;2023-04-24T14:32:40;2.00;;;1.80;;
13443;SDS011;6794;59.218;18.218;2023-04-24T14:35:06;3.83;;;1.90;;
13443;SDS011;6794;59.218;18.218;2023-04-24T14:37:32;2.50;;;1.60;;
13443;SDS011;6794;59.218;18.218;2023-04-24T14:39:59;2.50;;;1.80;;
13443;SDS011;6794;59.218;18.218;2023-04-24T14:42:25;4.32;;;2.00;;
13443;SDS011;6794;59.218;18.218;2023-04-24T14:44:51;2.70;;;1.93;;
13443;SDS011;6794;59.218;18.218;2023-04-24T14:47:17;2.83;;;2.07;;
13443;SDS011;6794;59.218;18.218;2023-04-24T14:49:46;2.50;;;2.30;;
13443;SDS011;6794;59.218;18.218;2023-04-24T14:52:12;3.73;;;2.10;;